sensor_id;sensor_type;location;lat;lon;timestamp;temperature;humidity
63407;SHT31;49543;45.892;10.838;2024-02-28T07:05:27;7.94;99.99
63407;SHT31;49543;45.892;10.838;2024-02-28T11:10:14;12.14;97.85
63407;SHT31;49543;45.892;10.838;2024-02-28T11:12:39;12.14;98.15
63407;SHT31;49543;45.892;10.838;2024-02-28T11:15:05;12.09;98.18
63407;SHT31;49543;45.892;10.838;2024-02-28T11:17:33;12.04;97.82
63407;SHT31;49543;45.892;10.838;2024-02-28T11:20:11;12.01;98.04
63407;SHT31;49543;45.892;10.838;2024-02-28T11:22:36;11.99;98.25
63407;SHT31;49543;45.892;10.838;2024-02-28T11:25:02;11.91;98.31
63407;SHT31;49543;45.892;10.838;2024-02-28T11:27:28;11.87;98.07
63407;SHT31;49543;45.892;10.838;2024-02-28T11:29:54;11.86;98.16
63407;SHT31;49543;45.892;10.838;2024-02-28T11:32:20;11.83;98.14
63407;SHT31;49543;45.892;10.838;2024-02-28T11:34:47;11.73;97.86
63407;SHT31;49543;45.892;10.838;2024-02-28T11:37:12;11.72;98.07
63407;SHT31;49543;45.892;10.838;2024-02-28T11:39:38;11.69;98.19
63407;SHT31;49543;45.892;10.838;2024-02-28T11:42:10;11.69;98.18
63407;SHT31;49543;45.892;10.838;2024-02-28T11:44:36;11.61;98.16
63407;SHT31;49543;45.892;10.838;2024-02-28T11:47:02;11.59;98.05
63407;SHT31;49543;45.892;10.838;2024-02-28T11:52:16;11.54;98.25
63407;SHT31;49543;45.892;10.838;2024-02-28T11:54:45;11.51;98.46
63407;SHT31;49543;45.892;10.838;2024-02-28T11:57:11;11.54;98.67
63407;SHT31;49543;45.892;10.838;2024-02-28T11:59:46;11.51;98.70
63407;SHT31;49543;45.892;10.838;2024-02-28T12:02:32;11.54;98.88
63407;SHT31;49543;45.892;10.838;2024-02-28T12:05:19;11.57;98.98
63407;SHT31;49543;45.892;10.838;2024-02-28T12:07:48;11.59;99.23
63407;SHT31;49543;45.892;10.838;2024-02-28T12:10:13;11.63;99.33
63407;SHT31;49543;45.892;10.838;2024-02-28T12:12:46;11.66;99.53
63407;SHT31;49543;45.892;10.838;2024-02-28T12:15:51;11.66;99.46
63407;SHT31;49543;45.892;10.838;2024-02-28T12:18:23;11.69;99.59
63407;SHT31;49543;45.892;10.838;2024-02-28T12:20:58;11.69;99.53
63407;SHT31;49543;45.892;10.838;2024-02-28T12:23:46;11.69;99.59
63407;SHT31;49543;45.892;10.838;2024-02-28T12:26:16;11.69;99.64
63407;SHT31;49543;45.892;10.838;2024-02-28T12:28:50;11.72;99.66
63407;SHT31;49543;45.892;10.838;2024-02-28T12:32:04;11.72;99.74
63407;SHT31;49543;45.892;10.838;2024-02-28T12:37:35;11.78;99.90
63407;SHT31;49543;45.892;10.838;2024-02-28T12:40:45;11.79;99.85
63407;SHT31;49543;45.892;10.838;2024-02-28T12:43:31;11.80;99.90
63407;SHT31;49543;45.892;10.838;2024-02-28T16:56:56;11.85;99.99
63407;SHT31;49543;45.892;10.838;2024-02-28T17:30:34;11.63;99.99
63407;SHT31;49543;45.892;10.838;2024-02-28T17:32:59;11.61;99.99
63407;SHT31;49543;45.892;10.838;2024-02-28T17:35:25;11.58;99.99
63407;SHT31;49543;45.892;10.838;2024-02-28T17:37:50;11.61;99.99
63407;SHT31;49543;45.892;10.838;2024-02-28T17:40:15;11.62;99.99
63407;SHT31;49543;45.892;10.838;2024-02-28T17:42:41;11.59;99.99
63407;SHT31;49543;45.892;10.838;2024-02-28T17:45:07;11.59;99.99
63407;SHT31;49543;45.892;10.838;2024-02-28T17:47:34;11.57;99.99
63407;SHT31;49543;45.892;10.838;2024-02-28T17:50:00;11.55;99.99
63407;SHT31;49543;45.892;10.838;2024-02-28T17:52:26;11.55;99.99
63407;SHT31;49543;45.892;10.838;2024-02-28T17:54:52;11.52;99.99
63407;SHT31;49543;45.892;10.838;2024-02-28T17:57:18;11.52;99.99
63407;SHT31;49543;45.892;10.838;2024-02-28T17:59:43;11.52;99.99
63407;SHT31;49543;45.892;10.838;2024-02-28T18:02:09;11.52;99.99
63407;SHT31;49543;45.892;10.838;2024-02-28T18:04:35;11.51;99.99
63407;SHT31;49543;45.892;10.838;2024-02-28T18:07:00;11.50;99.99
63407;SHT31;49543;45.892;10.838;2024-02-28T18:09:26;11.50;99.99
63407;SHT31;49543;45.892;10.838;2024-02-28T18:11:51;11.50;99.99
63407;SHT31;49543;45.892;10.838;2024-02-28T18:14:16;11.50;99.99
63407;SHT31;49543;45.892;10.838;2024-02-28T18:16:43;11.50;99.99
63407;SHT31;49543;45.892;10.838;2024-02-28T18:19:09;11.50;99.99
63407;SHT31;49543;45.892;10.838;2024-02-28T18:21:34;11.46;99.99
63407;SHT31;49543;45.892;10.838;2024-02-28T18:24:00;11.48;99.99
63407;SHT31;49543;45.892;10.838;2024-02-28T18:26:25;11.45;99.99
63407;SHT31;49543;45.892;10.838;2024-02-28T18:28:51;11.44;99.99
63407;SHT31;49543;45.892;10.838;2024-02-28T18:31:16;11.45;99.99
63407;SHT31;49543;45.892;10.838;2024-02-28T18:33:41;11.44;99.99
63407;SHT31;49543;45.892;10.838;2024-02-28T18:36:07;11.42;99.99
63407;SHT31;49543;45.892;10.838;2024-02-28T18:38:34;11.44;99.99
63407;SHT31;49543;45.892;10.838;2024-02-28T18:41:00;11.42;99.99
63407;SHT31;49543;45.892;10.838;2024-02-28T18:43:26;11.41;99.99
63407;SHT31;49543;45.892;10.838;2024-02-28T18:45:52;11.42;99.99
63407;SHT31;49543;45.892;10.838;2024-02-28T18:48:17;11.42;99.99
63407;SHT31;49543;45.892;10.838;2024-02-28T18:50:42;11.44;99.99
63407;SHT31;49543;45.892;10.838;2024-02-28T18:53:08;11.45;99.99
63407;SHT31;49543;45.892;10.838;2024-02-28T18:55:33;11.45;99.99
63407;SHT31;49543;45.892;10.838;2024-02-28T18:57:58;11.44;99.99
63407;SHT31;49543;45.892;10.838;2024-02-28T19:00:24;11.45;99.99
63407;SHT31;49543;45.892;10.838;2024-02-28T19:02:49;11.46;99.99
63407;SHT31;49543;45.892;10.838;2024-02-28T19:05:16;11.45;99.99
63407;SHT31;49543;45.892;10.838;2024-02-28T19:07:41;11.42;99.99
63407;SHT31;49543;45.892;10.838;2024-02-28T19:10:08;11.41;99.99
63407;SHT31;49543;45.892;10.838;2024-02-28T19:12:34;11.41;99.99
63407;SHT31;49543;45.892;10.838;2024-02-28T19:14:59;11.44;99.99
63407;SHT31;49543;45.892;10.838;2024-02-28T19:17:24;11.41;99.99
63407;SHT31;49543;45.892;10.838;2024-02-28T19:19:50;11.41;99.99
63407;SHT31;49543;45.892;10.838;2024-02-28T19:22:16;11.39;99.99
63407;SHT31;49543;45.892;10.838;2024-02-28T19:24:46;11.39;99.99
63407;SHT31;49543;45.892;10.838;2024-02-28T19:27:12;11.39;99.99
63407;SHT31;49543;45.892;10.838;2024-02-28T19:29:38;11.36;99.99
63407;SHT31;49543;45.892;10.838;2024-02-28T19:32:03;11.36;99.99
63407;SHT31;49543;45.892;10.838;2024-02-28T19:34:29;11.35;99.99
63407;SHT31;49543;45.892;10.838;2024-02-28T19:36:54;11.35;99.99
63407;SHT31;49543;45.892;10.838;2024-02-28T19:39:20;11.31;99.99
63407;SHT31;49543;45.892;10.838;2024-02-28T19:41:45;11.31;99.99
63407;SHT31;49543;45.892;10.838;2024-02-28T19:44:10;11.31;99.99
63407;SHT31;49543;45.892;10.838;2024-02-28T19:46:42;11.27;99.99
63407;SHT31;49543;45.892;10.838;2024-02-28T19:49:07;11.27;99.99
63407;SHT31;49543;45.892;10.838;2024-02-28T19:51:32;11.25;99.99
63407;SHT31;49543;45.892;10.838;2024-02-28T19:53:58;11.28;99.99
63407;SHT31;49543;45.892;10.838;2024-02-28T19:56:23;11.24;99.99
63407;SHT31;49543;45.892;10.838;2024-02-28T19:58:51;11.25;99.99
63407;SHT31;49543;45.892;10.838;2024-02-28T20:01:16;11.24;99.99
63407;SHT31;49543;45.892;10.838;2024-02-28T20:03:41;11.24;99.99
63407;SHT31;49543;45.892;10.838;2024-02-28T20:06:07;11.24;99.99
63407;SHT31;49543;45.892;10.838;2024-02-28T20:08:32;11.24;99.99
63407;SHT31;49543;45.892;10.838;2024-02-28T20:10:58;11.20;99.99
63407;SHT31;49543;45.892;10.838;2024-02-28T20:13:23;11.23;99.99
63407;SHT31;49543;45.892;10.838;2024-02-28T20:15:48;11.21;99.99
63407;SHT31;49543;45.892;10.838;2024-02-28T20:18:14;11.21;99.99
63407;SHT31;49543;45.892;10.838;2024-02-28T20:20:39;11.21;99.99
63407;SHT31;49543;45.892;10.838;2024-02-28T20:23:05;11.24;99.99
63407;SHT31;49543;45.892;10.838;2024-02-28T20:25:30;11.24;99.99
63407;SHT31;49543;45.892;10.838;2024-02-28T20:27:55;11.25;99.99
63407;SHT31;49543;45.892;10.838;2024-02-28T20:30:21;11.25;99.99
63407;SHT31;49543;45.892;10.838;2024-02-28T20:32:46;11.23;99.99
63407;SHT31;49543;45.892;10.838;2024-02-28T20:35:11;11.23;99.99
63407;SHT31;49543;45.892;10.838;2024-02-28T20:37:37;11.23;99.99
63407;SHT31;49543;45.892;10.838;2024-02-28T20:40:05;11.21;99.99
63407;SHT31;49543;45.892;10.838;2024-02-28T20:42:33;11.20;99.99
63407;SHT31;49543;45.892;10.838;2024-02-28T20:45:00;11.18;99.99
63407;SHT31;49543;45.892;10.838;2024-02-28T20:47:26;11.21;99.99
63407;SHT31;49543;45.892;10.838;2024-02-28T20:49:51;11.18;99.99
63407;SHT31;49543;45.892;10.838;2024-02-28T20:52:17;11.18;99.99
63407;SHT31;49543;45.892;10.838;2024-02-28T20:54:43;11.20;99.99
63407;SHT31;49543;45.892;10.838;2024-02-28T20:57:09;11.18;99.99
63407;SHT31;49543;45.892;10.838;2024-02-28T20:59:36;11.17;99.99
63407;SHT31;49543;45.892;10.838;2024-02-28T21:02:01;11.17;99.99
63407;SHT31;49543;45.892;10.838;2024-02-28T21:04:27;11.20;99.99
63407;SHT31;49543;45.892;10.838;2024-02-28T21:06:52;11.15;99.99
63407;SHT31;49543;45.892;10.838;2024-02-28T21:09:17;11.15;99.99
63407;SHT31;49543;45.892;10.838;2024-02-28T21:11:43;11.15;99.99
63407;SHT31;49543;45.892;10.838;2024-02-28T21:14:08;11.13;99.99
63407;SHT31;49543;45.892;10.838;2024-02-28T21:16:33;11.13;99.99
63407;SHT31;49543;45.892;10.838;2024-02-28T21:18:59;11.11;99.99
63407;SHT31;49543;45.892;10.838;2024-02-28T21:21:24;11.10;99.99
63407;SHT31;49543;45.892;10.838;2024-02-28T21:23:52;11.08;99.99
63407;SHT31;49543;45.892;10.838;2024-02-28T21:26:17;11.07;99.99
63407;SHT31;49543;45.892;10.838;2024-02-28T21:28:42;11.08;99.99
63407;SHT31;49543;45.892;10.838;2024-02-28T21:31:08;11.08;99.99
63407;SHT31;49543;45.892;10.838;2024-02-28T21:33:33;11.07;99.99
63407;SHT31;49543;45.892;10.838;2024-02-28T21:35:59;11.07;99.99
63407;SHT31;49543;45.892;10.838;2024-02-28T21:38:24;11.04;99.99
63407;SHT31;49543;45.892;10.838;2024-02-28T21:40:49;11.04;99.99
63407;SHT31;49543;45.892;10.838;2024-02-28T21:43:15;11.01;99.99
63407;SHT31;49543;45.892;10.838;2024-02-28T21:45:40;10.99;99.99
63407;SHT31;49543;45.892;10.838;2024-02-28T21:48:05;10.99;99.99
63407;SHT31;49543;45.892;10.838;2024-02-28T21:50:33;10.96;99.99
63407;SHT31;49543;45.892;10.838;2024-02-28T21:53:00;10.99;99.99
63407;SHT31;49543;45.892;10.838;2024-02-28T21:55:25;10.96;99.99
63407;SHT31;49543;45.892;10.838;2024-02-28T21:57:51;10.93;99.99
63407;SHT31;49543;45.892;10.838;2024-02-28T22:00:16;10.96;99.99
63407;SHT31;49543;45.892;10.838;2024-02-28T22:02:42;10.96;99.99
63407;SHT31;49543;45.892;10.838;2024-02-28T22:05:07;10.97;99.99
63407;SHT31;49543;45.892;10.838;2024-02-28T22:07:33;10.97;99.99
63407;SHT31;49543;45.892;10.838;2024-02-28T22:09:58;10.96;99.99
63407;SHT31;49543;45.892;10.838;2024-02-28T22:12:23;10.96;99.99
63407;SHT31;49543;45.892;10.838;2024-02-28T22:14:49;10.95;99.99
63407;SHT31;49543;45.892;10.838;2024-02-28T22:17:14;10.95;99.99
63407;SHT31;49543;45.892;10.838;2024-02-28T22:19:40;10.95;99.95
63407;SHT31;49543;45.892;10.838;2024-02-28T22:22:06;10.93;99.91
63407;SHT31;49543;45.892;10.838;2024-02-28T22:24:31;10.90;99.82
63407;SHT31;49543;45.892;10.838;2024-02-28T22:26:56;10.93;99.88
63407;SHT31;49543;45.892;10.838;2024-02-28T22:29:22;10.92;99.87
63407;SHT31;49543;45.892;10.838;2024-02-28T22:31:48;10.90;99.85
63407;SHT31;49543;45.892;10.838;2024-02-28T22:34:14;10.90;99.83
63407;SHT31;49543;45.892;10.838;2024-02-28T22:36:42;10.87;99.82
63407;SHT31;49543;45.892;10.838;2024-02-28T22:39:07;10.87;99.84
63407;SHT31;49543;45.892;10.838;2024-02-28T22:41:34;10.83;99.78
63407;SHT31;49543;45.892;10.838;2024-02-28T22:43:59;10.84;99.81
63407;SHT31;49543;45.892;10.838;2024-02-28T22:46:25;10.83;99.87
63407;SHT31;49543;45.892;10.838;2024-02-28T22:48:50;10.83;99.91
63407;SHT31;49543;45.892;10.838;2024-02-28T22:51:16;10.84;99.97
63407;SHT31;49543;45.892;10.838;2024-02-28T22:53:42;10.81;99.94
63407;SHT31;49543;45.892;10.838;2024-02-28T22:56:07;10.80;99.97
